Time;durP1;ratioP1;P1;durP2;ratioP2;P2;SDS_P1;SDS_P2;PMS_P1;PMS_P2;Temp;Humidity;BMP_temperature;BMP_pressure;BME280_temperature;BME280_humidity;BME280_pressure;Samples;Min_cycle;Max_cycle;Signal;HPM_P1;HPM_P2
2023/09/16 00:01:03;;;;;;;16.02;11.88;;;13.30;99.90;;;;;;5054281;28;20131;-72
2023/09/16 00:03:35;;;;;;;15.50;11.75;;;13.20;99.90;;;;;;5055565;28;20111;-73
2023/09/16 00:06:01;;;;;;;16.40;12.60;;;13.20;99.90;;;;;;5055249;28;20076;-73
2023/09/16 00:08:27;;;;;;;14.85;11.88;;;13.20;99.90;;;;;;5054291;28;20131;-73
2023/09/16 00:10:52;;;;;;;15.35;11.48;;;13.20;99.90;;;;;;5054821;28;20135;-73
2023/09/16 00:13:18;;;;;;;14.65;11.98;;;13.20;99.90;;;;;;5051762;28;20459;-73
2023/09/16 00:15:49;;;;;;;20.27;12.75;;;13.20;99.90;;;;;;5052142;28;20055;-73
2023/09/16 00:18:16;;;;;;;15.68;12.38;;;13.10;99.90;;;;;;5035112;28;20051;-73
2023/09/16 00:20:42;;;;;;;15.35;11.90;;;13.20;99.90;;;;;;5052736;28;20052;-73
2023/09/16 00:23:09;;;;;;;15.82;12.00;;;13.10;99.90;;;;;;5044822;28;20037;-73
2023/09/16 00:25:36;;;;;;;14.20;11.40;;;13.10;99.90;;;;;;5054967;28;20072;-73
2023/09/16 00:28:01;;;;;;;14.82;11.77;;;13.10;99.90;;;;;;5053567;28;20056;-73
2023/09/16 00:30:27;;;;;;;16.25;12.48;;;13.10;99.90;;;;;;5073288;28;20048;-73
2023/09/16 00:32:53;;;;;;;17.10;12.25;;;13.00;99.90;;;;;;5054548;28;20048;-73
2023/09/16 00:35:19;;;;;;;16.48;12.88;;;13.10;99.90;;;;;;5053900;28;20071;-73
2023/09/16 00:37:46;;;;;;;15.50;12.00;;;13.00;99.90;;;;;;5054954;28;20056;-72
2023/09/16 00:40:12;;;;;;;14.07;11.13;;;13.00;99.90;;;;;;5054417;28;20496;-72
2023/09/16 00:42:38;;;;;;;14.30;12.00;;;13.00;99.90;;;;;;5071771;28;20044;-73
2023/09/16 00:45:10;;;;;;;14.25;12.07;;;13.00;99.90;;;;;;5054593;28;20055;-72
2023/09/16 00:47:42;;;;;;;15.57;12.65;;;13.00;99.90;;;;;;5072580;28;20484;-72
2023/09/16 00:50:09;;;;;;;15.05;11.52;;;13.00;99.90;;;;;;5053281;28;20051;-73
2023/09/16 00:52:40;;;;;;;15.15;12.10;;;13.10;99.90;;;;;;5054142;28;20101;-73
2023/09/16 00:55:06;;;;;;;16.40;12.43;;;13.10;99.90;;;;;;5054049;28;20044;-73
2023/09/16 00:57:35;;;;;;;15.10;12.35;;;13.00;99.90;;;;;;5053623;28;20075;-73
2023/09/16 01:00:01;;;;;;;16.35;12.57;;;13.00;99.90;;;;;;5053536;28;20055;-72
2023/09/16 01:02:27;;;;;;;16.75;12.32;;;13.00;99.90;;;;;;5054353;28;20049;-73
2023/09/16 01:04:55;;;;;;;17.85;12.82;;;13.00;99.90;;;;;;5053579;28;20125;-73
2023/09/16 01:07:21;;;;;;;18.55;12.55;;;13.00;99.90;;;;;;5054350;28;20496;-73
2023/09/16 01:09:48;;;;;;;17.73;12.98;;;13.00;99.90;;;;;;5070917;28;20041;-73
2023/09/16 01:12:13;;;;;;;16.15;12.52;;;13.00;99.90;;;;;;5071696;28;20074;-73
2023/09/16 01:14:39;;;;;;;17.65;12.13;;;13.00;99.90;;;;;;5054284;28;20047;-73
2023/09/16 01:17:13;;;;;;;16.30;12.57;;;13.00;99.90;;;;;;5052906;28;20045;-73
2023/09/16 01:19:42;;;;;;;16.63;12.60;;;12.90;99.90;;;;;;5072424;28;20055;-73
2023/09/16 01:22:09;;;;;;;16.58;12.65;;;12.90;99.90;;;;;;5053733;28;20057;-73
2023/09/16 01:24:35;;;;;;;15.95;12.68;;;12.90;99.90;;;;;;5071471;28;20084;-73
2023/09/16 01:27:00;;;;;;;15.82;12.98;;;12.80;99.90;;;;;;5053732;28;20083;-73
2023/09/16 01:29:27;;;;;;;16.15;12.90;;;12.80;99.90;;;;;;5054129;28;20048;-73
2023/09/16 01:31:55;;;;;;;15.50;12.82;;;12.80;99.90;;;;;;5052944;28;20040;-72
2023/09/16 01:34:41;;;;;;;16.92;13.85;;;12.80;99.90;;;;;;5053666;28;20561;-73
2023/09/16 01:37:12;;;;;;;15.75;12.60;;;12.80;99.90;;;;;;5053064;28;20056;-73
2023/09/16 01:39:39;;;;;;;16.73;13.35;;;12.80;99.90;;;;;;5053411;28;20048;-72
2023/09/16 01:42:06;;;;;;;16.75;13.68;;;12.70;99.90;;;;;;5053647;28;20052;-72
2023/09/16 01:44:34;;;;;;;16.23;13.15;;;12.80;99.90;;;;;;5054255;28;20045;-72
2023/09/16 01:47:00;;;;;;;17.70;13.73;;;12.70;99.90;;;;;;5053189;28;20116;-72
2023/09/16 01:49:26;;;;;;;15.68;12.95;;;12.70;99.90;;;;;;5054054;28;20044;-72
2023/09/16 01:51:54;;;;;;;18.08;13.38;;;12.70;99.90;;;;;;5053618;28;20040;-72
2023/09/16 01:54:19;;;;;;;16.73;13.73;;;12.70;99.90;;;;;;5053495;28;20048;-72
2023/09/16 01:56:45;;;;;;;17.92;13.73;;;12.70;99.90;;;;;;5053780;28;20598;-72
2023/09/16 01:59:11;;;;;;;17.48;14.02;;;12.60;99.90;;;;;;5053626;28;20477;-72
2023/09/16 02:01:37;;;;;;;17.80;13.52;;;12.60;99.90;;;;;;5070647;28;20058;-72
2023/09/16 02:04:03;;;;;;;21.45;14.43;;;12.60;99.90;;;;;;5071569;28;20118;-72
2023/09/16 02:06:28;;;;;;;18.85;14.30;;;12.60;99.90;;;;;;5052937;28;20466;-72
2023/09/16 02:08:57;;;;;;;19.15;14.20;;;12.60;99.90;;;;;;5053535;28;20051;-72
2023/09/16 02:11:22;;;;;;;17.33;14.55;;;12.50;99.90;;;;;;5055436;28;20052;-72
2023/09/16 02:13:48;;;;;;;19.45;14.88;;;12.60;99.90;;;;;;5056517;28;20051;-72
2023/09/16 02:16:14;;;;;;;17.13;14.43;;;12.50;99.90;;;;;;5056927;28;20052;-72
2023/09/16 02:18:40;;;;;;;17.95;14.88;;;12.50;99.90;;;;;;5075303;28;20090;-73
2023/09/16 02:21:08;;;;;;;17.95;14.68;;;12.50;99.90;;;;;;5056392;28;20052;-72
2023/09/16 02:23:34;;;;;;;20.13;15.02;;;12.50;99.90;;;;;;5057217;28;20537;-72
2023/09/16 02:26:03;;;;;;;17.10;14.75;;;12.50;99.90;;;;;;5057157;28;20048;-72
2023/09/16 02:28:29;;;;;;;17.38;14.48;;;12.50;99.90;;;;;;5056697;28;20076;-72
2023/09/16 02:30:54;;;;;;;18.70;14.23;;;12.50;99.90;;;;;;5074539;28;20052;-72
2023/09/16 02:33:20;;;;;;;18.25;14.85;;;12.50;99.90;;;;;;5057021;28;20036;-72
2023/09/16 02:35:46;;;;;;;18.17;15.43;;;12.50;99.90;;;;;;5052443;28;20136;-72
2023/09/16 02:38:12;;;;;;;19.48;15.40;;;13.10;99.90;;;;;;5036786;28;20127;-72
2023/09/16 02:40:41;;;;;;;19.05;15.32;;;12.40;99.90;;;;;;5040283;28;20099;-72
2023/09/16 02:43:07;;;;;;;18.50;14.95;;;12.40;99.90;;;;;;5055970;28;20048;-72
2023/09/16 02:45:42;;;;;;;21.35;15.60;;;12.40;99.90;;;;;;5056743;28;20056;-72
2023/09/16 02:48:08;;;;;;;18.73;15.30;;;12.40;99.90;;;;;;5056733;28;20101;-72
2023/09/16 02:50:38;;;;;;;18.23;14.98;;;12.40;99.90;;;;;;5055684;28;20048;-72
2023/09/16 02:53:04;;;;;;;18.63;14.40;;;12.30;99.90;;;;;;5056460;28;20090;-72
2023/09/16 02:55:33;;;;;;;19.90;16.10;;;12.30;99.90;;;;;;5056224;28;20044;-72
2023/09/16 02:58:03;;;;;;;19.25;15.82;;;12.40;99.90;;;;;;5074097;28;20500;-72
2023/09/16 03:00:28;;;;;;;20.25;16.25;;;12.40;99.90;;;;;;5056101;28;20041;-72
2023/09/16 03:02:54;;;;;;;21.15;17.10;;;12.40;99.90;;;;;;5051827;28;20067;-73
2023/09/16 03:05:20;;;;;;;22.20;16.98;;;12.40;99.90;;;;;;5054367;28;20045;-73
2023/09/16 03:07:46;;;;;;;21.73;17.65;;;12.40;99.90;;;;;;5036430;28;20134;-72
2023/09/16 03:10:12;;;;;;;21.45;16.45;;;12.40;99.90;;;;;;5035646;28;20391;-72
2023/09/16 03:12:38;;;;;;;22.73;18.83;;;12.50;99.90;;;;;;5036636;28;20380;-73
2023/09/16 03:15:04;;;;;;;21.67;17.75;;;12.50;99.90;;;;;;5036007;28;20132;-73
2023/09/16 03:17:29;;;;;;;21.35;17.17;;;12.50;99.90;;;;;;5053027;28;20055;-73
2023/09/16 03:19:56;;;;;;;23.38;18.13;;;12.60;99.90;;;;;;5073574;28;20388;-73
2023/09/16 03:22:22;;;;;;;21.25;17.52;;;12.60;99.90;;;;;;5073679;28;20044;-73
2023/09/16 03:24:48;;;;;;;20.98;18.10;;;12.60;99.90;;;;;;5055143;28;20584;-73
2023/09/16 03:27:13;;;;;;;24.42;18.30;;;12.60;99.90;;;;;;5056015;28;20131;-73
2023/09/16 03:29:39;;;;;;;21.02;17.05;;;12.60;99.90;;;;;;5056213;28;20048;-72
2023/09/16 03:32:05;;;;;;;21.75;17.52;;;12.70;99.90;;;;;;5072767;28;20086;-72
2023/09/16 03:34:30;;;;;;;20.55;17.20;;;12.60;99.90;;;;;;5073797;28;20094;-72
2023/09/16 03:36:56;;;;;;;24.25;17.30;;;12.60;99.90;;;;;;5055409;28;20484;-72
2023/09/16 03:39:22;;;;;;;21.42;18.00;;;12.50;99.90;;;;;;5054968;28;20500;-72
2023/09/16 03:41:48;;;;;;;20.80;16.92;;;12.50;99.90;;;;;;5055311;28;20420;-72
2023/09/16 03:44:14;;;;;;;21.52;17.60;;;12.50;99.90;;;;;;5073629;28;20079;-72
2023/09/16 03:46:40;;;;;;;24.27;17.52;;;12.40;99.90;;;;;;5073097;28;20051;-72
2023/09/16 03:49:05;;;;;;;21.52;16.08;;;12.40;99.90;;;;;;5055101;28;20263;-72
2023/09/16 03:51:37;;;;;;;22.95;17.27;;;12.40;99.90;;;;;;5072920;28;20033;-72
2023/09/16 03:54:07;;;;;;;22.45;17.73;;;12.30;99.90;;;;;;5054552;28;20127;-72
2023/09/16 03:56:34;;;;;;;22.88;17.77;;;12.30;99.90;;;;;;5073342;28;20036;-72
2023/09/16 03:59:00;;;;;;;21.60;17.83;;;12.30;99.90;;;;;;5071967;28;20052;-72
2023/09/16 04:01:25;;;;;;;24.45;18.92;;;12.30;99.90;;;;;;5055626;28;20380;-73
2023/09/16 04:03:51;;;;;;;23.75;18.13;;;12.20;99.90;;;;;;5054925;28;20040;-72
2023/09/16 04:06:17;;;;;;;20.90;17.40;;;12.20;99.90;;;;;;5054230;28;20045;-72
2023/09/16 04:08:45;;;;;;;24.10;18.40;;;12.20;99.90;;;;;;5055396;28;20041;-73
2023/09/16 04:11:11;;;;;;;23.25;18.02;;;12.10;99.90;;;;;;5072873;28;20163;-73
2023/09/16 04:13:36;;;;;;;21.98;18.58;;;12.20;99.90;;;;;;5054294;28;20470;-72
2023/09/16 04:16:02;;;;;;;24.63;17.95;;;12.10;99.90;;;;;;5072516;28;20515;-72
2023/09/16 04:18:29;;;;;;;24.83;18.30;;;12.10;99.90;;;;;;5055280;28;20040;-72
2023/09/16 04:20:55;;;;;;;22.15;18.50;;;12.10;99.90;;;;;;5053871;28;20117;-72
2023/09/16 04:23:24;;;;;;;23.30;17.38;;;12.10;99.90;;;;;;5055026;28;20123;-72
2023/09/16 04:25:57;;;;;;;24.15;18.77;;;12.10;99.90;;;;;;5072660;28;20048;-72
2023/09/16 04:28:23;;;;;;;23.63;18.33;;;12.00;99.90;;;;;;5054254;28;20385;-72
2023/09/16 04:30:50;;;;;;;22.60;17.90;;;12.00;99.90;;;;;;5054540;28;20056;-72
2023/09/16 04:33:17;;;;;;;22.90;18.95;;;12.00;99.90;;;;;;5054272;28;20052;-72
2023/09/16 04:35:45;;;;;;;21.30;17.20;;;11.90;99.90;;;;;;5053415;28;20048;-72
2023/09/16 04:38:11;;;;;;;22.90;18.83;;;11.90;99.90;;;;;;5054592;28;20154;-72
2023/09/16 04:40:38;;;;;;;22.50;17.73;;;11.90;99.90;;;;;;5054749;28;20485;-72
2023/09/16 04:43:03;;;;;;;22.55;18.05;;;11.80;99.90;;;;;;5053670;28;20124;-72
2023/09/16 04:45:29;;;;;;;22.52;18.73;;;11.80;99.90;;;;;;5054209;28;20120;-72
2023/09/16 04:47:56;;;;;;;24.85;18.58;;;11.80;99.90;;;;;;5054562;28;20343;-73
2023/09/16 04:50:22;;;;;;;23.13;18.13;;;11.80;99.90;;;;;;5072007;28;20047;-72
2023/09/16 04:52:48;;;;;;;20.70;17.27;;;11.80;99.90;;;;;;5054297;28;20049;-72
2023/09/16 04:55:14;;;;;;;21.40;17.23;;;11.80;99.90;;;;;;5071590;28;20115;-72
2023/09/16 04:57:40;;;;;;;20.85;17.80;;;11.70;99.90;;;;;;5072510;28;20053;-72
2023/09/16 05:00:07;;;;;;;21.35;17.38;;;11.70;99.90;;;;;;5054249;28;20083;-72
2023/09/16 05:02:33;;;;;;;23.70;17.00;;;11.70;99.90;;;;;;5049663;28;20056;-72
2023/09/16 05:05:00;;;;;;;21.02;16.17;;;11.70;99.90;;;;;;5048141;28;20514;-72
2023/09/16 05:07:27;;;;;;;21.60;17.35;;;11.70;99.90;;;;;;5053692;28;20044;-72
2023/09/16 05:09:53;;;;;;;23.17;17.33;;;11.70;99.90;;;;;;5052430;28;20045;-72
2023/09/16 05:12:18;;;;;;;19.88;15.57;;;11.70;99.90;;;;;;5052552;28;20068;-73
2023/09/16 05:14:46;;;;;;;21.58;17.52;;;11.70;99.90;;;;;;5071835;28;20502;-72
2023/09/16 05:17:11;;;;;;;19.48;16.30;;;11.60;99.90;;;;;;5053239;28;20045;-72
2023/09/16 05:19:37;;;;;;;18.80;15.00;;;11.60;99.90;;;;;;5054476;28;20055;-72
2023/09/16 05:22:04;;;;;;;18.10;15.70;;;11.60;99.90;;;;;;5071844;28;20127;-72
2023/09/16 05:24:32;;;;;;;19.52;15.48;;;11.60;99.90;;;;;;5052626;28;20044;-72
2023/09/16 05:26:59;;;;;;;21.52;15.50;;;11.60;99.90;;;;;;5053908;28;20400;-72
2023/09/16 05:29:25;;;;;;;18.80;15.40;;;11.60;99.90;;;;;;5054316;28;20056;-72
2023/09/16 05:31:51;;;;;;;20.67;16.63;;;11.60;99.90;;;;;;5053113;28;20044;-72
2023/09/16 05:34:17;;;;;;;18.55;16.02;;;11.50;99.90;;;;;;5072313;28;20102;-72
2023/09/16 05:36:42;;;;;;;18.95;15.65;;;11.50;99.90;;;;;;5071892;28;20084;-72
2023/09/16 05:39:08;;;;;;;22.63;17.65;;;11.60;99.90;;;;;;5052122;28;20044;-72
2023/09/16 05:41:35;;;;;;;23.38;19.15;;;11.60;99.90;;;;;;5053893;28;20110;-72
2023/09/16 05:44:01;;;;;;;29.35;23.48;;;11.60;99.90;;;;;;5071768;28;20119;-72
2023/09/16 05:46:27;;;;;;;22.63;17.55;;;11.60;99.90;;;;;;5073692;28;20071;-72
2023/09/16 05:49:06;;;;;;;18.48;15.10;;;11.60;99.90;;;;;;5075001;28;20127;-72
2023/09/16 05:51:32;;;;;;;18.17;15.30;;;11.60;99.90;;;;;;5056965;28;20105;-72
2023/09/16 05:53:58;;;;;;;18.67;15.35;;;11.60;99.90;;;;;;5057343;28;20052;-72
2023/09/16 05:56:27;;;;;;;19.67;14.40;;;11.70;99.90;;;;;;5057525;28;20055;-72
2023/09/16 05:58:52;;;;;;;17.67;15.45;;;11.70;99.90;;;;;;5068960;28;20044;-71
2023/09/16 06:01:18;;;;;;;18.20;15.23;;;11.80;99.90;;;;;;5057564;28;20131;-73
2023/09/16 06:03:43;;;;;;;17.33;14.82;;;11.80;99.90;;;;;;5053138;28;20127;-72
2023/09/16 06:06:10;;;;;;;19.42;15.13;;;11.80;99.90;;;;;;5050354;28;20047;-72
2023/09/16 06:08:36;;;;;;;18.45;13.52;;;11.80;99.90;;;;;;5057170;28;20084;-72
2023/09/16 06:11:05;;;;;;;17.98;14.15;;;11.90;99.90;;;;;;5057064;28;20071;-72
2023/09/16 06:13:30;;;;;;;16.88;14.50;;;11.90;99.90;;;;;;5056730;28;20079;-72
2023/09/16 06:15:56;;;;;;;16.80;14.50;;;12.00;99.90;;;;;;5074773;28;20072;-72
2023/09/16 06:18:21;;;;;;;15.90;13.65;;;12.00;99.90;;;;;;5057224;28;20541;-73
2023/09/16 06:20:50;;;;;;;16.38;14.27;;;12.10;99.90;;;;;;5052499;28;20132;-72
2023/09/16 06:23:16;;;;;;;13.35;11.90;;;12.10;99.90;;;;;;5037636;28;20068;-72
2023/09/16 06:25:41;;;;;;;13.82;12.40;;;12.10;99.90;;;;;;5056077;28;20064;-72
2023/09/16 06:28:07;;;;;;;13.77;12.38;;;12.20;99.90;;;;;;5056320;28;20045;-73
2023/09/16 06:30:35;;;;;;;14.55;12.98;;;12.30;99.90;;;;;;5056862;28;20056;-72
2023/09/16 06:33:01;;;;;;;14.20;12.70;;;12.30;99.90;;;;;;5050886;28;20049;-72
2023/09/16 06:35:26;;;;;;;15.60;13.60;;;12.40;99.90;;;;;;5036189;28;20063;-71
2023/09/16 06:37:52;;;;;;;17.90;13.40;;;12.40;99.90;;;;;;5036392;28;20048;-73
2023/09/16 06:40:18;;;;;;;14.98;13.32;;;12.50;99.90;;;;;;5054240;28;20057;-72
2023/09/16 06:42:44;;;;;;;15.82;13.27;;;12.60;99.90;;;;;;5041817;28;20049;-72
2023/09/16 06:45:12;;;;;;;15.88;14.18;;;12.60;99.90;;;;;;5036601;28;20057;-73
2023/09/16 06:47:37;;;;;;;17.08;13.57;;;12.70;99.90;;;;;;5035901;28;20056;-73
2023/09/16 06:50:04;;;;;;;16.27;14.57;;;12.80;99.90;;;;;;5036227;28;20053;-73
2023/09/16 06:52:29;;;;;;;17.50;15.32;;;12.90;99.90;;;;;;5036400;28;20041;-73
2023/09/16 06:54:55;;;;;;;18.73;15.65;;;12.90;99.90;;;;;;5035384;28;20830;-72
2023/09/16 06:57:21;;;;;;;22.00;16.60;;;13.00;99.90;;;;;;5035792;28;20052;-73
2023/09/16 06:59:47;;;;;;;22.20;17.42;;;13.10;99.90;;;;;;5054175;28;20385;-72
2023/09/16 07:02:14;;;;;;;19.23;16.98;;;13.20;99.90;;;;;;5055605;28;20058;-72
2023/09/16 07:04:45;;;;;;;21.55;17.38;;;13.40;99.90;;;;;;5056384;28;20132;-73
2023/09/16 07:07:11;;;;;;;21.40;17.75;;;13.40;99.90;;;;;;5074089;28;20048;-73
2023/09/16 07:09:37;;;;;;;21.70;18.20;;;13.50;99.90;;;;;;5054138;28;20095;-71
2023/09/16 07:12:04;;;;;;;26.27;19.20;;;13.60;99.90;;;;;;5055413;28;20048;-72
2023/09/16 07:14:36;;;;;;;22.10;18.75;;;13.80;99.90;;;;;;5055998;28;20045;-73
2023/09/16 07:17:02;;;;;;;24.65;20.10;;;13.90;99.90;;;;;;5054879;28;20415;-73
2023/09/16 07:19:28;;;;;;;25.30;20.67;;;14.00;99.90;;;;;;5055726;28;20055;-73
2023/09/16 07:21:54;;;;;;;24.60;19.63;;;14.10;99.90;;;;;;5054943;28;20048;-74
2023/09/16 07:24:19;;;;;;;27.63;21.90;;;14.30;99.90;;;;;;5053989;28;20098;-74
2023/09/16 07:26:45;;;;;;;27.38;22.00;;;14.50;99.90;;;;;;5054819;28;20044;-74
2023/09/16 07:29:13;;;;;;;24.05;21.42;;;15.50;99.90;;;;;;5073003;28;20052;-74
2023/09/16 07:31:39;;;;;;;24.05;18.70;;;17.10;99.90;;;;;;5073021;28;20128;-71
2023/09/16 07:34:05;;;;;;;18.40;16.45;;;18.60;99.90;;;;;;5055038;28;20124;-71
2023/09/16 07:36:31;;;;;;;16.10;13.63;;;20.10;99.90;;;;;;5051711;28;20085;-72
2023/09/16 07:38:57;;;;;;;14.60;13.00;;;21.50;99.90;;;;;;5034532;28;20140;-72
2023/09/16 07:41:23;;;;;;;14.40;12.90;;;22.80;99.90;;;;;;5035571;28;20049;-73
2023/09/16 07:43:49;;;;;;;13.40;11.63;;;23.80;99.90;;;;;;5035630;28;20052;-73
2023/09/16 07:46:14;;;;;;;14.65;12.50;;;24.80;99.90;;;;;;5052902;28;20071;-73
2023/09/16 07:48:40;;;;;;;12.15;10.85;;;25.50;99.90;;;;;;5073071;28;20044;-73
2023/09/16 07:51:06;;;;;;;12.77;11.40;;;26.40;99.90;;;;;;5054255;28;20055;-78
2023/09/16 07:53:31;;;;;;;12.70;10.68;;;26.90;99.70;;;;;;5055453;28;20048;-79
2023/09/16 07:55:57;;;;;;;10.45;9.35;;;27.30;97.50;;;;;;5054555;28;20043;-74
2023/09/16 07:58:22;;;;;;;10.70;9.07;;;27.50;97.80;;;;;;5053923;28;20397;-76
2023/09/16 08:00:49;;;;;;;10.73;9.27;;;27.90;96.60;;;;;;5054873;28;20049;-75
2023/09/16 08:03:15;;;;;;;10.15;9.10;;;28.30;95.90;;;;;;5054728;28;20063;-72
2023/09/16 08:05:40;;;;;;;10.73;8.52;;;28.70;95.00;;;;;;5053449;28;20079;-74
2023/09/16 08:08:06;;;;;;;9.85;8.07;;;28.80;95.20;;;;;;5054060;28;20483;-72
2023/09/16 08:10:32;;;;;;;8.77;7.88;;;29.30;94.20;;;;;;5054099;28;20504;-77
2023/09/16 08:13:00;;;;;;;9.07;7.90;;;29.70;94.00;;;;;;5053596;28;20048;-74
2023/09/16 08:15:25;;;;;;;8.32;7.40;;;30.20;93.20;;;;;;5054564;28;20079;-76
2023/09/16 08:17:52;;;;;;;9.65;7.63;;;30.50;93.10;;;;;;5051094;28;20488;-76
2023/09/16 08:20:20;;;;;;;10.30;7.07;;;30.40;92.00;;;;;;5034517;28;20049;-75
2023/09/16 08:22:46;;;;;;;8.23;6.60;;;30.50;92.30;;;;;;5035113;28;20037;-77
2023/09/16 08:25:12;;;;;;;9.85;7.28;;;30.80;91.00;;;;;;5034916;28;20045;-76
2023/09/16 08:27:38;;;;;;;7.70;6.55;;;31.00;90.60;;;;;;5034300;28;20063;-77
2023/09/16 08:30:05;;;;;;;8.02;6.80;;;30.80;91.00;;;;;;5043577;28;20476;-77
2023/09/16 08:32:30;;;;;;;9.45;6.57;;;31.20;90.70;;;;;;5072446;28;20045;-74
2023/09/16 08:34:56;;;;;;;7.63;6.65;;;31.20;90.60;;;;;;5053504;28;20036;-76
2023/09/16 08:37:22;;;;;;;9.35;6.57;;;31.40;91.00;;;;;;5072490;28;20181;-75
2023/09/16 08:39:47;;;;;;;8.13;6.20;;;31.70;90.30;;;;;;5054264;28;20053;-75
2023/09/16 08:42:28;;;;;;;9.38;5.90;;;31.70;90.00;;;;;;5053751;28;20532;-76
2023/09/16 08:44:57;;;;;;;8.10;5.57;;;31.90;89.40;;;;;;5050667;28;20484;-73
2023/09/16 08:47:48;;;;;;;8.55;5.50;;;32.30;90.00;;;;;;5033897;28;20049;-73
2023/09/16 08:50:17;;;;;;;8.35;6.05;;;32.40;88.00;;;;;;5052951;28;20045;-76
2023/09/16 08:52:49;;;;;;;8.80;6.28;;;32.50;88.00;;;;;;5038189;28;20063;-74
2023/09/16 08:55:16;;;;;;;10.35;6.55;;;32.60;88.10;;;;;;5053734;28;20033;-73
2023/09/16 08:57:50;;;;;;;7.10;5.70;;;32.60;87.80;;;;;;5072245;28;20094;-73
2023/09/16 09:00:16;;;;;;;9.38;6.70;;;32.60;87.90;;;;;;5053847;28;20507;-75
2023/09/16 09:02:43;;;;;;;6.53;5.75;;;32.90;88.30;;;;;;5053740;28;20045;-76
2023/09/16 09:05:10;;;;;;;7.53;5.90;;;33.20;88.20;;;;;;5050679;28;20163;-77
2023/09/16 09:07:40;;;;;;;8.10;6.15;;;33.00;86.10;;;;;;5034644;28;20057;-75
2023/09/16 09:10:06;;;;;;;9.32;6.55;;;33.00;87.10;;;;;;5039819;28;20319;-79
2023/09/16 09:12:37;;;;;;;9.90;6.57;;;33.20;85.10;;;;;;5054513;28;20047;-75
2023/09/16 09:15:06;;;;;;;7.88;6.50;;;33.40;86.20;;;;;;5051409;28;20048;-73
2023/09/16 09:17:44;;;;;;;7.65;6.20;;;33.70;87.00;;;;;;5053541;28;20506;-78
2023/09/16 09:20:22;;;;;;;7.93;6.65;;;33.90;84.60;;;;;;5054793;28;20060;-80
2023/09/16 09:22:50;;;;;;;7.90;6.57;;;33.60;82.40;;;;;;5053884;28;20047;-77
2023/09/16 09:25:23;;;;;;;8.77;6.38;;;33.70;84.70;;;;;;5056362;28;20492;-75
2023/09/16 09:27:50;;;;;;;6.50;5.72;;;33.70;86.30;;;;;;5054415;28;20052;-74
2023/09/16 09:30:19;;;;;;;9.32;6.05;;;34.10;84.30;;;;;;5037757;28;20124;-74
2023/09/16 09:32:45;;;;;;;7.85;5.75;;;34.20;82.50;;;;;;5038074;28;20148;-72
2023/09/16 09:35:12;;;;;;;8.27;6.40;;;34.50;80.10;;;;;;5037613;28;20140;-73
2023/09/16 09:37:38;;;;;;;7.70;5.82;;;34.20;80.20;;;;;;5055117;28;20503;-71
2023/09/16 09:40:14;;;;;;;7.35;5.07;;;34.20;82.70;;;;;;5043234;28;20045;-73
2023/09/16 09:42:45;;;;;;;8.70;5.82;;;34.40;81.80;;;;;;5046667;28;20102;-76
2023/09/16 09:45:11;;;;;;;7.65;6.32;;;34.60;80.00;;;;;;5058181;28;20060;-74
2023/09/16 09:47:38;;;;;;;6.65;5.35;;;34.90;80.20;;;;;;5053365;28;20095;-76
2023/09/16 09:50:07;;;;;;;8.75;5.20;;;34.70;79.10;;;;;;5037701;28;20044;-75
2023/09/16 09:52:34;;;;;;;6.15;5.25;;;34.80;77.30;;;;;;5039216;28;20060;-76
2023/09/16 09:55:01;;;;;;;8.60;5.30;;;35.00;77.60;;;;;;5053928;28;20041;-75
2023/09/16 09:57:29;;;;;;;7.10;4.88;;;35.00;78.70;;;;;;5037664;28;20084;-76
2023/09/16 09:59:56;;;;;;;5.78;4.90;;;35.00;79.70;;;;;;5036936;28;20124;-77
2023/09/16 10:02:30;;;;;;;7.75;5.32;;;35.00;78.50;;;;;;5037540;28;20052;-78
2023/09/16 10:05:05;;;;;;;7.70;4.35;;;35.00;78.60;;;;;;5043121;28;20484;-75
2023/09/16 10:07:31;;;;;;;5.65;4.75;;;35.40;76.00;;;;;;5050002;28;20037;-72
2023/09/16 10:09:57;;;;;;;7.50;5.20;;;35.30;76.80;;;;;;5051950;28;20044;-71
2023/09/16 10:12:23;;;;;;;7.65;5.70;;;35.20;79.00;;;;;;5041354;28;20036;-69
2023/09/16 10:14:49;;;;;;;7.68;4.78;;;35.00;78.80;;;;;;5075181;28;20072;-70
2023/09/16 10:17:15;;;;;;;7.15;4.85;;;35.20;77.80;;;;;;5057305;28;20053;-70
2023/09/16 10:19:43;;;;;;;7.78;4.60;;;35.40;75.50;;;;;;5074437;28;20032;-72
2023/09/16 10:22:10;;;;;;;5.10;4.07;;;35.10;76.80;;;;;;5056574;28;20049;-73
2023/09/16 10:24:36;;;;;;;7.68;4.32;;;35.00;75.90;;;;;;5053616;28;20187;-72
2023/09/16 10:27:08;;;;;;;5.82;4.13;;;34.70;73.90;;;;;;5036017;28;20147;-72
2023/09/16 10:29:37;;;;;;;8.98;4.18;;;34.60;75.70;;;;;;5070417;28;20515;-73
2023/09/16 10:32:02;;;;;;;7.15;4.25;;;34.70;73.80;;;;;;5035560;28;20064;-74
2023/09/16 10:34:30;;;;;;;6.30;3.70;;;35.10;74.80;;;;;;5054084;28;20041;-72
2023/09/16 10:36:56;;;;;;;6.45;4.00;;;35.20;74.40;;;;;;5036693;28;20053;-73
2023/09/16 10:39:23;;;;;;;5.57;3.47;;;34.90;72.30;;;;;;5036582;28;20056;-73
2023/09/16 10:41:50;;;;;;;4.72;3.33;;;35.00;73.60;;;;;;5035581;28;20518;-73
2023/09/16 10:44:16;;;;;;;4.95;3.00;;;34.70;71.70;;;;;;5054310;28;20069;-74
2023/09/16 10:46:43;;;;;;;6.10;3.60;;;35.00;77.00;;;;;;5036397;28;20128;-74
2023/09/16 10:49:09;;;;;;;5.03;3.58;;;35.00;75.20;;;;;;5036103;28;20136;-72
2023/09/16 10:51:42;;;;;;;6.07;4.13;;;35.30;75.10;;;;;;5036401;28;20531;-72
2023/09/16 10:54:44;;;;;;;6.15;3.70;;;35.20;74.60;;;;;;5035471;28;20056;-74
2023/09/16 10:57:25;;;;;;;6.05;3.67;;;35.10;73.40;;;;;;5032421;28;20103;-74
2023/09/16 10:59:55;;;;;;;7.72;3.90;;;34.70;72.10;;;;;;5035997;28;20041;-73
2023/09/16 11:02:29;;;;;;;5.30;3.60;;;34.70;73.40;;;;;;5051219;28;20052;-73
2023/09/16 11:04:58;;;;;;;5.65;4.00;;;34.70;73.70;;;;;;5056241;28;20041;-72
2023/09/16 11:07:24;;;;;;;5.57;3.45;;;34.00;72.70;;;;;;5055749;28;20041;-72
2023/09/16 11:09:51;;;;;;;7.35;3.47;;;34.40;72.60;;;;;;5072792;28;20055;-72
2023/09/16 11:12:18;;;;;;;5.75;3.97;;;35.00;75.60;;;;;;5073492;28;20567;-72
2023/09/16 11:14:44;;;;;;;5.57;3.30;;;35.30;74.50;;;;;;5054677;28;20112;-72
2023/09/16 11:17:14;;;;;;;5.28;3.38;;;35.30;74.10;;;;;;5054624;28;20066;-74
2023/09/16 11:19:43;;;;;;;5.07;3.42;;;35.60;74.40;;;;;;5055819;28;20484;-74
2023/09/16 11:22:09;;;;;;;5.35;3.28;;;36.00;71.80;;;;;;5072081;28;20040;-73
2023/09/16 11:24:36;;;;;;;5.90;3.70;;;35.60;72.00;;;;;;5072894;28;20407;-72
2023/09/16 11:27:02;;;;;;;5.53;3.55;;;35.20;73.80;;;;;;5051589;28;20051;-71
2023/09/16 11:29:29;;;;;;;6.93;3.97;;;34.90;73.60;;;;;;5054152;28;20136;-71
2023/09/16 11:31:55;;;;;;;7.75;4.30;;;34.90;73.50;;;;;;5054766;28;20051;-71
2023/09/16 11:34:24;;;;;;;7.15;4.55;;;34.60;72.90;;;;;;5055186;28;20041;-71
2023/09/16 11:36:53;;;;;;;7.03;3.60;;;34.90;72.80;;;;;;5072526;28;20122;-71
2023/09/16 11:39:22;;;;;;;6.47;3.70;;;35.00;73.30;;;;;;5054956;28;20056;-71
2023/09/16 11:41:48;;;;;;;12.45;4.82;;;35.60;74.40;;;;;;5054915;28;20124;-72
2023/09/16 11:44:15;;;;;;;5.30;3.60;;;35.80;74.90;;;;;;5054635;28;20036;-70
2023/09/16 11:46:41;;;;;;;5.57;3.78;;;35.30;71.60;;;;;;5055716;28;20083;-72
2023/09/16 11:49:08;;;;;;;5.53;3.50;;;35.00;72.40;;;;;;5055409;28;20056;-73
2023/09/16 11:51:36;;;;;;;5.60;3.50;;;35.10;72.80;;;;;;5054646;28;20059;-71
2023/09/16 11:54:02;;;;;;;7.53;3.55;;;35.10;71.00;;;;;;5054173;28;20391;-72
2023/09/16 11:56:31;;;;;;;6.15;4.38;;;34.70;73.10;;;;;;5073021;28;20084;-70
2023/09/16 11:58:58;;;;;;;5.30;3.30;;;34.90;72.70;;;;;;5071981;28;20048;-74
2023/09/16 12:01:28;;;;;;;5.80;3.53;;;35.00;72.80;;;;;;5035513;28;20130;-74
2023/09/16 12:03:56;;;;;;;5.72;3.90;;;35.20;74.30;;;;;;5053143;28;20037;-75
2023/09/16 12:06:25;;;;;;;5.20;3.65;;;35.10;71.50;;;;;;5050918;28;20406;-76
2023/09/16 12:08:53;;;;;;;7.20;3.53;;;35.00;73.80;;;;;;5034306;28;20044;-74
2023/09/16 12:11:20;;;;;;;5.70;3.00;;;34.90;72.00;;;;;;5059102;28;20119;-73
2023/09/16 12:13:45;;;;;;;5.43;3.45;;;34.50;71.10;;;;;;5054626;28;20041;-73
2023/09/16 12:16:11;;;;;;;4.82;3.25;;;34.20;72.30;;;;;;5054323;28;20044;-72
2023/09/16 12:18:37;;;;;;;4.50;3.40;;;33.90;73.70;;;;;;5052509;28;20045;-72
2023/09/16 12:21:05;;;;;;;6.43;3.90;;;33.50;74.40;;;;;;5054176;28;20052;-72
2023/09/16 12:23:31;;;;;;;6.22;3.53;;;33.40;74.70;;;;;;5054214;28;20040;-72
2023/09/16 12:26:00;;;;;;;8.07;4.95;;;33.10;75.40;;;;;;5049577;28;20049;-71
2023/09/16 12:28:27;;;;;;;5.05;3.28;;;33.30;78.30;;;;;;5049435;28;20055;-71
2023/09/16 12:30:55;;;;;;;5.38;3.03;;;33.00;76.10;;;;;;5054380;28;20080;-73
2023/09/16 12:33:22;;;;;;;4.90;3.15;;;32.40;77.70;;;;;;5053972;28;20529;-73